Time;durP1;ratioP1;P1;durP2;ratioP2;P2;SDS_P1;SDS_P2;PMS_P1;PMS_P2;Temp;Humidity;BMP_temperature;BMP_pressure;BME280_temperature;BME280_humidity;BME280_pressure;Samples;Min_cycle;Max_cycle;Signal;HPM_P1;HPM_P2
2024/03/15 00:00:36;0.00;0.00;0.62;0.00;0.00;0.62;2.20;1.50;;;25.10;25.10;;;;;;2253895;61;20364;-62
2024/03/15 00:03:05;0.00;0.00;0.62;0.00;0.00;0.62;2.40;1.80;;;25.10;25.10;;;;;;2252812;61;20356;-67
2024/03/15 00:05:32;0.00;0.00;0.62;0.00;0.00;0.62;2.20;1.90;;;25.10;25.10;;;;;;2253252;61;20377;-65
2024/03/15 00:08:02;0.00;0.00;0.62;0.00;0.00;0.62;2.47;2.07;;;25.10;25.10;;;;;;2252918;61;20550;-62
2024/03/15 00:10:33;0.00;0.00;0.62;0.00;0.00;0.62;2.77;1.97;;;25.00;25.10;;;;;;2249413;61;20385;-63
2024/03/15 00:13:03;0.00;0.00;0.62;0.00;0.00;0.62;2.50;1.50;;;25.10;25.10;;;;;;2256493;61;20388;-63
2024/03/15 00:15:32;0.00;0.00;0.62;0.00;0.00;0.62;3.37;1.80;;;25.00;25.10;;;;;;2256649;61;20381;-64
2024/03/15 00:18:02;0.00;0.00;0.62;0.00;0.00;0.62;2.57;2.10;;;25.00;25.10;;;;;;2252791;61;20996;-65
2024/03/15 00:20:31;0.00;0.00;0.62;0.00;0.00;0.62;3.87;2.00;;;25.00;25.10;;;;;;2253383;61;20438;-61
2024/03/15 00:22:59;0.00;0.00;0.62;0.00;0.00;0.62;3.07;1.87;;;25.00;25.10;;;;;;2253316;61;20910;-64
2024/03/15 00:25:31;0.00;0.00;0.62;0.00;0.00;0.62;2.87;1.83;;;25.00;25.10;;;;;;2252579;61;20384;-62
2024/03/15 00:27:57;0.00;0.00;0.62;0.00;0.00;0.62;2.40;2.00;;;25.00;25.10;;;;;;2253585;61;20408;-64
2024/03/15 00:30:24;0.00;0.00;0.62;0.00;0.00;0.62;2.93;1.70;;;25.00;25.10;;;;;;2253020;61;20388;-64
2024/03/15 00:32:52;0.00;0.00;0.62;0.00;0.00;0.62;2.57;2.07;;;25.00;25.70;;;;;;2249222;61;20463;-64
2024/03/15 00:35:20;0.00;0.00;0.62;0.00;0.00;0.62;2.23;1.73;;;25.00;25.20;;;;;;2256439;61;20419;-64
2024/03/15 00:37:46;0.00;0.00;0.62;0.00;0.00;0.62;2.83;2.00;;;25.00;25.20;;;;;;2256464;61;20349;-63
2024/03/15 00:40:12;0.00;0.00;0.62;0.00;0.00;0.62;3.03;2.13;;;25.00;25.20;;;;;;2255594;61;20372;-62
2024/03/15 00:42:40;0.00;0.00;0.62;0.00;0.00;0.62;2.20;1.70;;;25.00;25.10;;;;;;2256545;61;20353;-63
2024/03/15 00:45:06;0.00;0.00;0.62;0.00;0.00;0.62;2.10;1.70;;;25.00;25.20;;;;;;2256482;61;20369;-64
2024/03/15 00:47:33;0.00;0.00;0.62;0.00;0.00;0.62;2.50;1.90;;;25.00;25.10;;;;;;2255580;61;20381;-61
2024/03/15 00:49:59;0.00;0.00;0.62;0.00;0.00;0.62;1.90;1.37;;;25.00;25.20;;;;;;2253145;61;20349;-63
2024/03/15 00:52:25;0.00;0.00;0.62;0.00;0.00;0.62;2.70;1.67;;;25.00;25.20;;;;;;2253076;61;20448;-63
2024/03/15 00:54:51;0.00;0.00;0.62;0.00;0.00;0.62;2.47;1.80;;;25.00;25.70;;;;;;2252435;61;20345;-63
2024/03/15 00:57:18;0.00;0.00;0.62;0.00;0.00;0.62;3.20;1.90;;;25.00;25.40;;;;;;2256475;61;20879;-64
2024/03/15 00:59:44;0.00;0.00;0.62;0.00;0.00;0.62;3.53;1.70;;;25.00;25.20;;;;;;2256241;61;20842;-63
2024/03/15 01:02:11;0.00;0.00;0.62;0.00;0.00;0.62;2.83;1.47;;;25.00;25.20;;;;;;2256005;61;20879;-63
2024/03/15 01:04:37;0.00;0.00;0.62;0.00;0.00;0.62;3.33;1.63;;;25.00;25.20;;;;;;2255583;61;20353;-62
2024/03/15 01:07:05;0.00;0.00;0.62;0.00;0.00;0.62;2.00;1.60;;;25.00;25.20;;;;;;2251931;61;20370;-62
2024/03/15 01:09:31;0.00;0.00;0.62;0.00;0.00;0.62;2.50;1.97;;;25.00;25.20;;;;;;2252129;61;20492;-62
2024/03/15 01:11:57;0.00;0.00;0.62;0.00;0.00;0.62;3.13;2.07;;;25.00;25.20;;;;;;2255303;61;20345;-64
2024/03/15 01:14:23;0.00;0.00;0.62;0.00;0.00;0.62;2.73;1.23;;;24.90;25.20;;;;;;2252263;61;20368;-64
2024/03/15 01:16:50;0.00;0.00;0.62;0.00;0.00;0.62;1.77;1.43;;;25.00;25.70;;;;;;2252177;61;20943;-64
2024/03/15 01:19:16;0.00;0.00;0.62;0.00;0.00;0.62;2.83;1.63;;;25.00;25.20;;;;;;2252126;61;20940;-64
2024/03/15 01:21:43;0.00;0.00;0.62;0.00;0.00;0.62;2.07;1.60;;;24.90;25.20;;;;;;2252009;61;20369;-64
2024/03/15 01:24:12;0.00;0.00;0.62;0.00;0.00;0.62;2.40;1.60;;;25.00;25.20;;;;;;2252223;61;20353;-66
2024/03/15 01:26:39;0.00;0.00;0.62;0.00;0.00;0.62;2.20;1.73;;;24.90;25.20;;;;;;2255941;61;20378;-64
2024/03/15 01:29:06;0.00;0.00;0.62;0.00;0.00;0.62;2.33;1.60;;;24.90;25.20;;;;;;2256225;61;20346;-64
2024/03/15 01:31:32;0.00;0.00;0.62;0.00;0.00;0.62;2.73;1.93;;;24.90;25.20;;;;;;2256107;61;20407;-66
2024/03/15 01:33:58;0.00;0.00;0.62;0.00;0.00;0.62;2.23;1.80;;;24.90;25.20;;;;;;2256001;61;20354;-64
2024/03/15 01:36:25;0.00;0.00;0.62;0.00;0.00;0.62;2.30;1.80;;;24.90;25.20;;;;;;2249291;61;20362;-66
2024/03/15 01:38:51;0.00;0.00;0.62;0.00;0.00;0.62;2.60;2.07;;;24.90;25.20;;;;;;2249582;61;20350;-65
2024/03/15 01:41:17;0.00;0.00;0.62;0.00;0.00;0.62;2.30;1.63;;;24.90;25.20;;;;;;2253033;61;20507;-66
2024/03/15 01:43:50;0.00;0.00;0.62;0.00;0.00;0.62;4.10;1.80;;;24.90;25.20;;;;;;2253500;61;20376;-66
2024/03/15 01:46:16;0.00;0.00;0.62;0.00;0.00;0.62;2.83;1.60;;;24.90;25.30;;;;;;2253745;61;20938;-65
2024/03/15 01:48:44;0.00;0.00;0.62;0.00;0.00;0.62;2.40;1.80;;;24.90;25.70;;;;;;2255268;61;20373;-65
2024/03/15 01:51:11;0.00;0.00;0.62;0.00;0.00;0.62;2.40;1.67;;;24.90;25.20;;;;;;2256016;61;20732;-66
2024/03/15 01:53:37;0.00;0.00;0.62;0.00;0.00;0.62;2.73;1.73;;;24.90;25.30;;;;;;2255976;61;20350;-65
2024/03/15 01:56:04;0.00;0.00;0.62;0.00;0.00;0.62;2.17;1.70;;;24.90;25.20;;;;;;2256495;61;20369;-66
2024/03/15 01:58:30;0.00;0.00;0.62;0.00;0.00;0.62;2.03;1.40;;;24.80;25.20;;;;;;2253194;61;20349;-65
2024/03/15 02:00:57;0.00;0.00;0.62;0.00;0.00;0.62;2.07;1.60;;;24.90;25.30;;;;;;2253314;61;20346;-65
2024/03/15 02:03:23;0.00;0.00;0.62;0.00;0.00;0.62;2.73;1.70;;;24.90;25.80;;;;;;2255350;61;20389;-65
2024/03/15 02:05:50;0.00;0.00;0.62;0.00;0.00;0.62;2.00;1.60;;;24.90;25.30;;;;;;2256624;61;20373;-65
2024/03/15 02:08:19;0.00;0.00;0.62;0.00;0.00;0.62;2.10;1.60;;;24.80;25.70;;;;;;2256434;61;20377;-66
2024/03/15 02:10:46;0.00;0.00;0.62;0.00;0.00;0.62;2.40;1.80;;;24.80;25.20;;;;;;2249713;61;20424;-66
2024/03/15 02:13:15;0.00;0.00;0.62;0.00;0.00;0.62;1.90;1.40;;;24.80;25.20;;;;;;2252661;61;20800;-66
2024/03/15 02:15:42;0.00;0.00;0.62;0.00;0.00;0.62;2.37;1.80;;;24.80;25.20;;;;;;2251810;61;20393;-66
2024/03/15 02:18:09;0.00;0.00;0.62;0.00;0.00;0.62;2.37;1.70;;;24.80;25.20;;;;;;2252871;61;20903;-64
2024/03/15 02:20:35;0.00;0.00;0.62;0.00;0.00;0.62;1.73;1.37;;;24.80;25.30;;;;;;2255812;61;20369;-66
2024/03/15 02:23:03;0.00;0.00;0.62;0.00;0.00;0.62;3.37;1.43;;;24.80;25.80;;;;;;2252364;61;20612;-66
2024/03/15 02:25:30;0.00;0.00;0.62;0.00;0.00;0.62;2.80;1.90;;;24.80;25.20;;;;;;2252740;61;20404;-65
2024/03/15 02:27:56;0.00;0.00;0.62;0.00;0.00;0.62;2.07;1.53;;;24.80;25.80;;;;;;2252521;61;20435;-64
2024/03/15 02:30:22;0.00;0.00;0.62;0.00;0.00;0.62;2.10;1.63;;;24.80;25.30;;;;;;2252022;61;20353;-65
2024/03/15 02:32:49;0.00;0.00;0.62;0.00;0.00;0.62;2.57;1.67;;;24.80;25.30;;;;;;2252770;61;20437;-66
2024/03/15 02:35:15;0.00;0.00;0.62;0.00;0.00;0.62;2.40;1.80;;;24.80;25.30;;;;;;2252434;61;20426;-64
2024/03/15 02:37:41;0.00;0.00;0.62;0.00;0.00;0.62;2.40;1.47;;;24.80;25.30;;;;;;2251827;61;20806;-65
2024/03/15 02:40:09;0.00;0.00;0.62;0.00;0.00;0.62;2.00;1.50;;;24.80;25.30;;;;;;2252236;61;20350;-65
2024/03/15 02:42:36;0.00;0.00;0.62;0.00;0.00;0.62;2.47;2.00;;;24.80;25.30;;;;;;2252522;61;20349;-65
2024/03/15 02:45:03;0.00;0.00;0.62;0.00;0.00;0.62;2.07;1.50;;;24.80;25.30;;;;;;2252945;61;20381;-65
2024/03/15 02:47:30;0.00;0.00;0.62;0.00;0.00;0.62;2.27;2.00;;;24.80;25.30;;;;;;2253296;61;20365;-65
2024/03/15 02:49:56;0.00;0.00;0.62;0.00;0.00;0.62;2.20;1.60;;;24.80;25.30;;;;;;2253222;61;20395;-65
2024/03/15 02:52:22;0.00;0.00;0.62;0.00;0.00;0.62;2.50;1.60;;;24.80;25.30;;;;;;2253563;61;20346;-64
2024/03/15 02:54:48;0.00;0.00;0.62;0.00;0.00;0.62;2.10;1.80;;;24.80;25.80;;;;;;2255879;61;20400;-65
2024/03/15 02:57:15;0.00;0.00;0.62;0.00;0.00;0.62;2.07;1.50;;;24.80;25.30;;;;;;2255740;61;20433;-65
2024/03/15 02:59:42;0.00;0.00;0.62;0.00;0.00;0.62;2.50;1.90;;;24.80;25.30;;;;;;2255293;61;20366;-63
2024/03/15 03:02:08;0.00;0.00;0.62;0.00;0.00;0.62;2.63;1.90;;;24.80;25.30;;;;;;2252586;61;20361;-64
2024/03/15 03:04:35;0.00;0.00;0.62;0.00;0.00;0.62;2.70;2.27;;;24.80;25.20;;;;;;2252492;61;20353;-64
2024/03/15 03:07:03;0.00;0.00;0.62;0.00;0.00;0.62;2.63;1.87;;;24.80;25.30;;;;;;2251945;61;20879;-67
2024/03/15 03:09:31;0.00;0.00;0.62;0.00;0.00;0.62;3.23;1.97;;;24.80;25.30;;;;;;2249439;61;20886;-66
2024/03/15 03:11:57;0.00;0.00;0.62;0.00;0.00;0.62;2.50;1.73;;;24.80;25.20;;;;;;2252697;61;20338;-64
2024/03/15 03:14:24;0.00;0.00;0.62;0.00;0.00;0.62;2.60;2.00;;;24.80;25.20;;;;;;2252847;61;20369;-67
2024/03/15 03:16:50;0.00;0.00;0.62;0.00;0.00;0.62;2.40;2.20;;;24.80;25.20;;;;;;2255520;61;20378;-65
2024/03/15 03:19:17;0.00;0.00;0.62;0.00;0.00;0.62;2.23;1.80;;;24.80;25.20;;;;;;2255827;61;20442;-64
2024/03/15 03:21:45;0.00;0.00;0.62;0.00;0.00;0.62;2.80;1.70;;;24.80;25.20;;;;;;2255035;61;20357;-64
2024/03/15 03:24:11;0.00;0.00;0.62;0.00;0.00;0.62;3.13;2.20;;;24.80;25.20;;;;;;2249288;61;20441;-65
2024/03/15 03:26:37;0.00;0.00;0.62;0.00;0.00;0.62;3.47;2.07;;;24.70;25.20;;;;;;2249151;61;20405;-64
2024/03/15 03:29:05;0.00;0.00;0.62;0.00;0.00;0.62;2.50;1.70;;;24.70;25.20;;;;;;2250011;61;20392;-63
2024/03/15 03:31:31;0.00;0.00;0.62;0.00;0.00;0.62;2.73;1.90;;;24.80;25.30;;;;;;2256377;61;20349;-64
2024/03/15 03:33:57;0.00;0.00;0.62;0.00;0.00;0.62;2.13;1.70;;;24.70;25.80;;;;;;2256494;61;20345;-64
2024/03/15 03:36:24;0.00;0.00;0.62;0.00;0.00;0.62;2.67;1.80;;;24.70;25.20;;;;;;2251806;61;20378;-67
2024/03/15 03:38:50;0.00;0.00;0.62;0.00;0.00;0.62;2.13;1.77;;;24.70;25.20;;;;;;2249138;61;20392;-67
2024/03/15 03:41:17;0.00;0.00;0.62;0.00;0.00;0.62;2.93;1.97;;;24.70;25.70;;;;;;2249057;61;20339;-65
2024/03/15 03:43:43;0.00;0.00;0.62;0.00;0.00;0.62;3.10;1.60;;;24.70;25.20;;;;;;2249166;61;20357;-64
2024/03/15 03:46:12;0.00;0.00;0.62;0.00;0.00;0.62;2.37;2.07;;;24.70;25.20;;;;;;2249034;61;20405;-64
2024/03/15 03:48:39;0.00;0.00;0.62;0.00;0.00;0.62;2.20;1.60;;;24.70;25.20;;;;;;2249036;61;20481;-65
2024/03/15 03:51:05;0.00;0.00;0.62;0.00;0.00;0.62;2.63;1.90;;;24.70;25.20;;;;;;2249714;61;20448;-64
2024/03/15 03:53:31;0.00;0.00;0.62;0.00;0.00;0.62;1.90;1.60;;;24.70;25.20;;;;;;2253066;61;20894;-64
2024/03/15 03:55:58;0.00;0.00;0.62;0.00;0.00;0.62;2.07;1.77;;;24.70;25.30;;;;;;2253014;61;20372;-64
2024/03/15 03:58:24;0.00;0.00;0.62;0.00;0.00;0.62;2.93;1.70;;;24.70;25.30;;;;;;2251934;61;20369;-64
2024/03/15 04:00:50;0.00;0.00;0.62;0.00;0.00;0.62;2.33;2.00;;;24.70;25.30;;;;;;2252283;61;20361;-64
2024/03/15 04:03:17;0.00;0.00;0.62;0.00;0.00;0.62;2.57;1.90;;;24.70;25.20;;;;;;2252234;61;20353;-64
2024/03/15 04:05:43;0.00;0.00;0.62;0.00;0.00;0.62;2.90;1.60;;;24.70;25.30;;;;;;2251803;61;20713;-64
2024/03/15 04:08:11;0.00;0.00;0.62;0.00;0.00;0.62;2.70;1.60;;;24.70;25.20;;;;;;2252223;61;20623;-63
2024/03/15 04:10:38;0.00;0.00;0.62;0.00;0.00;0.62;2.13;1.67;;;24.70;25.30;;;;;;2252192;61;20361;-66
2024/03/15 04:13:04;0.00;0.00;0.62;0.00;0.00;0.62;1.80;1.60;;;24.70;25.80;;;;;;2252011;61;20449;-64
2024/03/15 04:15:32;0.00;0.00;0.62;0.00;0.00;0.62;2.23;1.70;;;24.70;25.30;;;;;;2255174;61;20424;-63
2024/03/15 04:17:59;0.00;0.00;0.62;0.00;0.00;0.62;2.63;1.83;;;24.70;25.80;;;;;;2255330;61;20432;-64
2024/03/15 04:20:26;0.00;0.00;0.62;0.00;0.00;0.62;2.30;1.90;;;24.70;25.30;;;;;;2254151;61;20456;-65
2024/03/15 04:22:52;0.00;0.00;0.62;0.00;0.00;0.62;3.00;2.10;;;24.70;25.20;;;;;;2253070;61;20349;-64
2024/03/15 04:25:19;0.00;0.00;0.62;0.00;0.00;0.62;2.10;1.70;;;24.70;25.30;;;;;;2256295;61;20375;-64
2024/03/15 04:27:46;0.00;0.00;0.62;0.00;0.00;0.62;2.30;1.70;;;24.70;25.20;;;;;;2254619;61;20902;-63
2024/03/15 04:30:16;0.00;0.00;0.62;0.00;0.00;0.62;4.27;2.03;;;24.70;25.20;;;;;;2256048;61;20353;-63
2024/03/15 04:32:42;0.00;0.00;0.62;0.00;0.00;0.62;2.73;1.93;;;24.70;25.20;;;;;;2255360;61;20397;-63
2024/03/15 04:35:08;0.00;0.00;0.62;0.00;0.00;0.62;2.20;1.80;;;24.70;25.30;;;;;;2248854;61;20386;-63
2024/03/15 04:37:35;0.00;0.00;0.62;0.00;0.00;0.62;2.90;2.20;;;24.70;25.20;;;;;;2256141;61;20881;-64
2024/03/15 04:40:04;0.00;0.00;0.62;0.00;0.00;0.62;2.77;2.10;;;24.60;25.20;;;;;;2256219;61;20863;-63
2024/03/15 04:42:32;0.00;0.00;0.62;0.00;0.00;0.62;2.97;1.87;;;24.60;25.10;;;;;;2255877;61;20411;-63
2024/03/15 04:45:04;0.00;0.00;0.62;0.00;0.00;0.62;2.40;2.20;;;24.60;25.10;;;;;;2252161;61;20457;-63
2024/03/15 04:47:31;0.00;0.00;0.62;0.00;0.00;0.62;2.20;1.73;;;24.60;25.20;;;;;;2252528;61;20754;-65
2024/03/15 04:49:57;0.00;0.00;0.62;0.00;0.00;0.62;2.20;1.93;;;24.60;25.10;;;;;;2252136;61;20353;-63
2024/03/15 04:52:23;0.00;0.00;0.62;0.00;0.00;0.62;2.80;1.97;;;24.60;25.10;;;;;;2251941;61;20346;-63
2024/03/15 04:54:50;0.00;0.00;0.62;0.00;0.00;0.62;2.00;1.73;;;24.60;25.10;;;;;;2253803;61;20366;-66
2024/03/15 04:57:18;0.00;0.00;0.62;0.00;0.00;0.62;2.70;2.20;;;24.60;25.10;;;;;;2255398;61;20879;-63
2024/03/15 04:59:45;0.00;0.00;0.62;0.00;0.00;0.62;2.97;2.30;;;24.60;25.60;;;;;;2253050;61;20356;-63
2024/03/15 05:02:12;0.00;0.00;0.62;0.00;0.00;0.62;2.23;1.70;;;24.60;25.10;;;;;;2253700;61;20353;-63
2024/03/15 05:04:41;0.00;0.00;0.62;0.00;0.00;0.62;2.27;1.83;;;24.60;25.10;;;;;;2253528;61;20381;-63
2024/03/15 05:07:07;0.00;0.00;0.62;0.00;0.00;0.62;2.50;2.00;;;24.60;25.10;;;;;;2250283;61;20432;-63
2024/03/15 05:09:36;0.00;0.00;0.62;0.00;0.00;0.62;3.47;1.57;;;24.60;25.70;;;;;;2253672;61;20352;-63
2024/03/15 05:12:02;0.00;0.00;0.62;0.00;0.00;0.62;2.90;1.90;;;24.60;25.10;;;;;;2253536;61;20748;-65
2024/03/15 05:14:30;0.00;0.00;0.62;0.00;0.00;0.62;2.67;1.60;;;24.60;25.20;;;;;;2253403;61;20369;-63
2024/03/15 05:16:56;0.00;0.00;0.62;0.00;0.00;0.62;2.10;1.73;;;24.60;25.20;;;;;;2253786;61;20519;-63
2024/03/15 05:19:23;0.00;0.00;0.62;0.00;0.00;0.62;3.10;1.67;;;24.60;25.20;;;;;;2250066;61;20353;-63
2024/03/15 05:21:52;0.00;0.00;0.62;0.00;0.00;0.62;2.20;1.90;;;24.50;25.10;;;;;;2253436;61;20739;-63
2024/03/15 05:24:18;0.00;0.00;0.62;0.00;0.00;0.62;2.60;1.73;;;24.60;25.20;;;;;;2253895;61;20357;-63
2024/03/15 05:26:47;0.00;0.00;0.62;0.00;0.00;0.62;2.17;1.80;;;24.60;25.20;;;;;;2246366;61;21078;-68
2024/03/15 05:29:14;0.00;0.00;0.62;0.00;0.00;0.62;2.33;1.60;;;24.60;25.20;;;;;;2253018;61;20377;-63
2024/03/15 05:31:41;0.00;0.00;0.62;0.00;0.00;0.62;2.50;1.93;;;24.60;25.20;;;;;;2253191;61;20345;-64
2024/03/15 05:34:07;0.00;0.00;0.62;0.00;0.00;0.62;2.13;1.67;;;24.60;25.20;;;;;;2252813;61;20349;-65
2024/03/15 05:36:34;0.00;0.00;0.62;0.00;0.00;0.62;2.70;2.10;;;24.50;25.20;;;;;;2253201;61;20472;-63
2024/03/15 05:39:01;0.00;0.00;0.62;0.00;0.00;0.62;2.50;2.00;;;24.50;25.20;;;;;;2253357;61;20432;-63
2024/03/15 05:41:28;0.00;0.00;0.62;0.00;0.00;0.62;2.90;2.13;;;24.50;25.70;;;;;;2252733;61;20808;-65
2024/03/15 05:43:54;0.00;0.00;0.62;0.00;0.00;0.62;2.47;1.93;;;24.60;25.20;;;;;;2256386;61;20353;-62
2024/03/15 05:46:20;0.00;0.00;0.62;0.00;0.00;0.62;2.47;2.00;;;24.50;25.20;;;;;;2256440;61;20369;-62
2024/03/15 05:48:47;0.00;0.00;0.62;0.00;0.00;0.62;3.07;2.30;;;24.50;25.20;;;;;;2252519;61;20369;-64
2024/03/15 05:51:13;0.00;0.00;0.62;0.00;0.00;0.62;2.70;1.80;;;24.50;25.20;;;;;;2253007;61;20353;-65
2024/03/15 05:53:40;0.00;0.00;0.62;0.00;0.00;0.62;2.73;2.10;;;24.50;25.20;;;;;;2253197;61;20357;-63
2024/03/15 05:56:06;0.00;0.00;0.62;0.00;0.00;0.62;2.60;2.10;;;24.50;25.20;;;;;;2252793;61;20369;-68
2024/03/15 05:58:32;0.00;0.00;0.62;0.00;0.00;0.62;2.67;2.37;;;24.50;25.20;;;;;;2258962;61;20354;-63
2024/03/15 06:00:59;0.00;0.00;0.62;0.00;0.00;0.62;3.50;2.20;;;24.50;25.20;;;;;;2249037;61;20665;-63
2024/03/15 06:03:25;0.00;0.00;0.62;0.00;0.00;0.62;2.50;1.90;;;24.50;25.20;;;;;;2249118;61;20441;-68
2024/03/15 06:05:51;0.00;0.00;0.62;0.00;0.00;0.62;2.83;2.00;;;24.50;25.20;;;;;;2252586;61;20867;-64
2024/03/15 06:08:18;0.00;0.00;0.62;0.00;0.00;0.62;3.10;2.17;;;24.50;25.70;;;;;;2253115;61;20388;-63
2024/03/15 06:10:44;0.00;0.00;0.62;0.00;0.00;0.62;2.67;2.10;;;24.50;25.20;;;;;;2252923;61;20806;-63
2024/03/15 06:13:10;0.00;0.00;0.62;0.00;0.00;0.62;3.87;2.40;;;24.50;25.20;;;;;;2251853;61;20772;-63
2024/03/15 06:15:39;0.00;0.00;0.62;0.00;0.00;0.62;3.30;2.20;;;24.50;25.20;;;;;;2252357;61;20388;-63
2024/03/15 06:18:06;0.00;0.00;0.62;0.00;0.00;0.62;3.80;2.80;;;24.50;25.20;;;;;;2252401;61;20864;-63
2024/03/15 06:20:32;0.00;0.00;0.62;0.00;0.00;0.62;3.47;2.30;;;24.50;25.20;;;;;;2254960;61;20448;-63
2024/03/15 06:22:58;0.00;0.00;0.62;0.00;0.00;0.62;4.40;3.30;;;24.50;25.70;;;;;;2252384;61;20358;-65
2024/03/15 06:25:27;0.00;0.00;0.62;0.00;0.00;0.62;3.07;2.50;;;24.50;25.20;;;;;;2252307;61;20388;-63
2024/03/15 06:27:54;0.00;0.00;0.62;0.00;0.00;0.62;4.07;3.47;;;24.50;25.20;;;;;;2255195;61;20377;-64
2024/03/15 06:30:20;0.00;0.00;0.62;0.00;0.00;0.62;5.20;4.27;;;24.50;25.20;;;;;;2249129;61;20358;-63
2024/03/15 06:32:46;0.00;0.00;0.62;0.00;0.00;0.62;3.90;3.40;;;24.50;25.20;;;;;;2248958;61;20350;-66
2024/03/15 06:35:19;0.00;0.00;0.62;0.00;0.00;0.62;5.47;4.23;;;24.50;25.20;;;;;;2249025;61;20452;-65
2024/03/15 06:37:45;0.00;0.00;0.62;0.00;0.00;0.62;7.13;4.27;;;24.50;25.20;;;;;;2256552;61;20341;-63
2024/03/15 06:40:19;0.00;0.00;0.62;0.00;0.00;0.62;6.30;4.67;;;24.50;25.20;;;;;;2256337;61;20353;-64
2024/03/15 06:45:52;0.00;0.00;0.62;0.00;0.00;0.62;5.50;4.77;;;24.50;25.20;;;;;;2250660;61;20423;-66
2024/03/15 06:48:22;0.00;0.00;0.62;0.00;0.00;0.62;5.70;4.90;;;24.50;25.30;;;;;;2251328;61;20416;-62
2024/03/15 06:51:00;0.00;0.00;0.62;0.00;0.00;0.62;6.67;5.47;;;24.50;25.30;;;;;;2253235;61;20925;-63
2024/03/15 06:53:26;0.00;0.00;0.62;0.00;0.00;0.62;6.67;5.17;;;24.50;25.20;;;;;;2254351;61;20835;-65
2024/03/15 06:55:55;0.00;0.00;0.62;0.00;0.00;0.62;8.10;5.90;;;24.50;25.20;;;;;;2252010;61;20373;-64
2024/03/15 06:58:21;0.00;0.00;0.62;0.00;0.00;0.62;7.23;5.60;;;24.50;25.80;;;;;;2255540;61;20388;-63
2024/03/15 07:00:48;0.00;0.00;0.62;0.00;0.00;0.62;6.33;5.40;;;24.40;25.20;;;;;;2255371;61;20454;-63
2024/03/15 07:03:16;0.00;0.00;0.62;0.00;0.00;0.62;7.33;5.63;;;24.40;25.20;;;;;;2255128;61;20412;-63
2024/03/15 07:05:42;0.00;0.00;0.62;0.00;0.00;0.62;9.13;7.27;;;24.40;25.20;;;;;;2245859;61;20951;-65
2024/03/15 07:08:09;0.00;0.00;0.62;0.00;0.00;0.62;7.93;6.93;;;24.40;25.20;;;;;;2248957;61;20457;-65
2024/03/15 07:10:35;0.00;0.00;0.62;0.00;0.00;0.62;8.00;7.20;;;24.40;25.20;;;;;;2249341;61;20352;-63
2024/03/15 07:13:02;0.00;0.00;0.62;0.00;0.00;0.62;9.67;8.07;;;24.40;25.20;;;;;;2252706;61;20354;-64
2024/03/15 07:15:28;0.00;0.00;0.62;0.00;0.00;0.62;10.37;8.23;;;24.50;25.30;;;;;;2252816;61;20395;-62
2024/03/15 07:17:55;0.00;0.00;0.62;0.00;0.00;0.62;10.87;8.40;;;24.50;25.30;;;;;;2251582;61;20438;-64
2024/03/15 07:20:21;0.00;0.00;0.62;0.00;0.00;0.62;11.33;9.37;;;24.40;25.20;;;;;;2255254;61;20346;-63
2024/03/15 07:22:47;0.00;0.00;0.62;0.00;0.00;0.62;10.93;9.80;;;24.40;25.70;;;;;;2252188;61;20354;-63
2024/03/15 07:25:15;0.00;0.00;0.62;0.00;0.00;0.62;11.77;9.60;;;24.40;25.20;;;;;;2255598;61;20377;-62
2024/03/15 07:27:41;0.00;0.00;0.62;0.00;0.00;0.62;11.03;8.87;;;24.50;25.30;;;;;;2255811;61;20432;-63
2024/03/15 07:30:11;0.00;0.00;0.62;0.00;0.00;0.62;11.83;10.07;;;24.40;25.20;;;;;;2256047;61;20349;-63
2024/03/15 07:32:37;0.00;0.00;0.62;0.00;0.00;0.62;11.83;10.50;;;24.40;25.20;;;;;;2255830;61;20357;-63
2024/03/15 07:35:05;0.00;0.00;0.62;0.00;0.00;0.62;10.50;9.50;;;24.40;25.20;;;;;;2256084;61;20365;-65
2024/03/15 07:37:32;0.00;0.00;0.62;0.00;0.00;0.62;11.70;9.47;;;24.40;25.20;;;;;;2252842;61;20447;-65
2024/03/15 07:39:59;0.00;0.00;0.62;0.00;0.00;0.62;9.93;8.93;;;24.40;25.20;;;;;;2252296;61;20360;-64
2024/03/15 07:42:25;0.00;0.00;0.62;0.00;0.00;0.62;10.40;9.30;;;24.40;25.20;;;;;;2252719;61;20984;-65
2024/03/15 07:44:52;0.00;0.00;0.62;0.00;0.00;0.62;10.13;8.70;;;24.40;25.20;;;;;;2249379;61;20407;-65
2024/03/15 07:47:19;0.00;0.00;0.62;0.00;0.00;0.62;10.33;9.03;;;24.40;25.20;;;;;;2252470;61;20434;-65
2024/03/15 07:49:47;0.00;0.00;0.62;0.00;0.00;0.62;11.33;9.30;;;24.40;25.20;;;;;;2252788;61;20389;-65
2024/03/15 07:52:13;0.00;0.00;0.62;0.00;0.00;0.62;10.57;9.07;;;24.40;25.20;;;;;;2252921;61;20356;-65
2024/03/15 07:54:40;0.00;0.00;0.62;0.00;0.00;0.62;11.60;8.87;;;24.40;25.20;;;;;;2252292;61;20360;-65
2024/03/15 07:57:07;0.00;0.00;0.62;0.00;0.00;0.62;9.27;7.97;;;24.40;25.30;;;;;;2255939;61;20349;-64
2024/03/15 07:59:33;0.00;0.00;0.62;0.00;0.00;0.62;11.10;9.00;;;24.40;25.30;;;;;;2256183;61;20905;-63
2024/03/15 08:02:01;0.00;0.00;0.62;0.00;0.00;0.62;9.10;8.20;;;24.40;25.30;;;;;;2255276;61;20352;-66
2024/03/15 08:04:27;0.00;0.00;0.62;0.00;0.00;0.62;11.57;9.10;;;24.40;25.30;;;;;;2256110;61;20751;-63
2024/03/15 08:06:55;0.00;0.00;0.62;0.00;0.00;0.62;10.30;7.90;;;24.40;25.30;;;;;;2255899;61;20365;-64
2024/03/15 08:09:23;0.00;0.00;0.62;0.00;0.00;0.62;9.30;7.83;;;24.40;25.30;;;;;;2255419;61;20385;-69
2024/03/15 08:11:49;0.00;0.00;0.62;0.00;0.00;0.62;7.90;7.03;;;24.40;25.30;;;;;;2252683;61;20436;-64
2024/03/15 08:14:16;0.00;0.00;0.62;0.00;0.00;0.62;8.10;7.00;;;24.40;25.30;;;;;;2255934;61;20436;-66
2024/03/15 08:16:44;0.00;0.00;0.62;0.00;0.00;0.62;7.83;7.03;;;24.40;25.30;;;;;;2255587;61;20369;-65
2024/03/15 08:19:11;0.00;0.00;0.62;0.00;0.00;0.62;9.50;8.43;;;24.40;25.30;;;;;;2256153;61;20507;-64
2024/03/15 08:21:37;0.00;0.00;0.62;0.00;0.00;0.62;8.40;7.40;;;24.40;25.30;;;;;;2256217;61;20364;-63
2024/03/15 08:24:04;0.00;0.00;0.62;0.00;0.00;0.62;9.63;7.20;;;24.40;25.40;;;;;;2255912;61;20361;-64
2024/03/15 08:26:31;0.00;0.00;0.62;0.00;0.00;0.62;8.60;7.17;;;24.40;25.40;;;;;;2255690;61;20457;-65
2024/03/15 08:28:58;0.00;0.00;0.62;0.00;0.00;0.62;8.67;7.73;;;24.40;25.90;;;;;;2252750;61;20786;-64
2024/03/15 08:31:24;0.00;0.00;0.62;0.00;0.00;0.62;8.03;6.80;;;24.40;25.40;;;;;;2255738;61;20357;-64
2024/03/15 08:33:50;0.00;0.00;0.62;0.00;0.00;0.62;7.10;6.40;;;24.40;25.40;;;;;;2254941;61;20350;-66
2024/03/15 08:36:17;0.00;0.00;0.62;0.00;0.00;0.62;6.90;6.00;;;24.40;25.40;;;;;;2249040;61;20365;-64
2024/03/15 08:38:43;0.00;0.00;0.62;0.00;0.00;0.62;6.90;6.20;;;24.40;25.40;;;;;;2249168;61;21202;-63
2024/03/15 08:41:12;0.00;0.00;0.62;0.00;0.00;0.62;7.43;6.30;;;24.40;25.40;;;;;;2251905;61;20360;-63
2024/03/15 08:43:38;0.00;0.00;0.62;0.00;0.00;0.62;7.43;6.63;;;24.40;25.40;;;;;;2252851;61;20354;-66
2024/03/15 08:46:05;0.00;0.00;0.62;0.00;0.00;0.62;7.47;5.57;;;24.40;25.50;;;;;;2252443;61;20384;-65
2024/03/15 08:48:31;0.00;0.00;0.62;0.00;0.00;0.62;6.73;5.97;;;24.40;25.50;;;;;;2253034;61;20376;-64
2024/03/15 08:50:58;0.00;0.00;0.62;0.00;0.00;0.62;8.57;7.10;;;24.40;25.50;;;;;;2253450;61;20424;-63
2024/03/15 08:53:24;0.00;0.00;0.62;0.00;0.00;0.62;9.00;7.60;;;24.40;25.50;;;;;;2253257;61;20756;-64
2024/03/15 08:55:51;0.00;0.00;0.62;0.00;0.00;0.62;8.73;7.83;;;24.40;25.50;;;;;;2249768;61;20376;-64
2024/03/15 08:58:17;0.00;0.00;0.62;0.00;0.00;0.62;11.27;8.23;;;24.40;25.50;;;;;;2253323;61;20885;-64
2024/03/15 09:00:44;0.00;0.00;0.62;0.00;0.00;0.62;9.33;7.30;;;24.40;25.50;;;;;;2253186;61;20626;-64
2024/03/15 09:03:10;0.00;0.00;0.62;0.00;0.00;0.62;9.53;7.97;;;24.40;25.50;;;;;;2255162;61;20397;-67
2024/03/15 09:05:38;0.00;0.00;0.62;0.00;0.00;0.62;10.23;8.80;;;24.40;25.50;;;;;;2255757;61;20377;-65
2024/03/15 09:08:06;0.00;0.00;0.62;0.00;0.00;0.62;9.43;8.53;;;24.40;25.50;;;;;;2255412;61;20381;-66
2024/03/15 09:10:33;0.00;0.00;0.62;0.00;0.00;0.62;9.00;8.10;;;24.40;25.50;;;;;;2249782;61;20362;-63
2024/03/15 09:12:59;0.00;0.00;0.62;0.00;0.00;0.62;9.50;8.37;;;24.40;25.50;;;;;;2252687;61;20591;-64
2024/03/15 09:15:26;0.00;0.00;0.62;0.00;0.00;0.62;11.23;8.00;;;24.40;25.50;;;;;;2252320;61;20390;-63
2024/03/15 09:17:53;0.00;0.00;0.62;0.00;0.00;0.62;8.70;7.80;;;24.40;25.50;;;;;;2254831;61;20418;-63
2024/03/15 09:20:19;0.00;0.00;0.62;0.00;0.00;0.62;8.40;7.50;;;24.40;25.50;;;;;;2253172;61;20678;-63
2024/03/15 09:22:49;0.00;0.00;0.62;0.00;0.00;0.62;9.03;8.13;;;24.40;25.50;;;;;;2253257;61;20447;-63
2024/03/15 09:25:18;0.00;0.00;0.62;0.00;0.00;0.62;8.00;7.07;;;24.40;25.60;;;;;;2252254;61;20404;-62
2024/03/15 09:27:45;0.00;0.00;0.62;0.00;0.00;0.62;8.80;7.33;;;24.40;25.60;;;;;;2252807;61;20880;-62
2024/03/15 09:30:20;0.00;0.00;0.62;0.00;0.00;0.62;8.23;7.20;;;24.40;25.50;;;;;;2252584;61;20365;-63
2024/03/15 09:32:48;0.00;0.00;0.62;0.00;0.00;0.62;8.07;7.07;;;24.40;25.50;;;;;;2249291;61;20453;-62
2024/03/15 09:35:15;0.00;0.00;0.62;0.00;0.00;0.62;10.30;7.20;;;24.40;25.50;;;;;;2252663;61;20370;-62
2024/03/15 09:37:50;0.00;0.00;0.62;0.00;0.00;0.62;8.07;7.23;;;24.40;25.60;;;;;;2252536;61;20350;-63
2024/03/15 09:40:16;0.00;0.00;0.62;0.00;0.00;0.62;7.80;7.10;;;24.40;25.60;;;;;;2253626;61;20874;-63
2024/03/15 09:42:43;0.00;0.00;0.62;0.00;0.00;0.62;7.70;7.00;;;24.40;26.10;;;;;;2253430;61;20410;-63